Time;durP1;ratioP1;P1;durP2;ratioP2;P2;SDS_P1;SDS_P2;PMS_P1;PMS_P2;Temp;Humidity;BMP_temperature;BMP_pressure;BME280_temperature;BME280_humidity;BME280_pressure;Samples;Min_cycle;Max_cycle;Signal;HPM_P1;HPM_P2
2023/03/28 00:03:21;;;;;;;3.70;2.60;;;21.70;56.60;;;;;;222572;1262;23919;-50
2023/03/28 00:08:30;;;;;;;3.90;2.40;;;21.90;56.50;;;;;;222510;1263;24409;-58
2023/03/28 00:13:34;;;;;;;3.10;1.90;;;22.30;55.60;;;;;;222387;1262;22516;-54
2023/03/28 00:18:39;;;;;;;3.70;2.50;;;22.50;55.10;;;;;;222478;1265;25297;-57
2023/03/28 00:23:43;;;;;;;4.10;2.00;;;22.80;54.50;;;;;;222554;1255;22608;-52
2023/03/28 00:28:47;;;;;;;4.00;2.20;;;23.00;53.90;;;;;;222653;1262;22805;-54
2023/03/28 00:33:52;;;;;;;2.50;2.00;;;23.10;53.30;;;;;;222191;1262;23924;-52
2023/03/28 00:39:00;;;;;;;3.40;2.70;;;23.20;53.00;;;;;;222301;1262;25194;-53
2023/03/28 00:44:42;;;;;;;3.20;2.20;;;23.30;53.00;;;;;;222254;1255;22573;-54
2023/03/28 00:49:48;;;;;;;2.30;1.70;;;23.30;53.00;;;;;;222138;1253;22472;-53
2023/03/28 00:54:56;;;;;;;3.00;2.00;;;23.20;52.80;;;;;;222499;1262;23923;-55
2023/03/28 01:00:00;;;;;;;2.80;2.30;;;23.20;52.90;;;;;;222522;1249;24227;-56
2023/03/28 01:05:06;;;;;;;3.60;2.60;;;23.20;53.00;;;;;;222421;1262;22508;-53
2023/03/28 01:10:11;;;;;;;2.20;1.70;;;23.20;53.00;;;;;;222392;1256;24216;-53
2023/03/28 01:15:16;;;;;;;1.60;1.50;;;23.20;53.00;;;;;;222069;1260;23148;-53
2023/03/28 01:21:04;;;;;;;2.40;2.00;;;23.20;53.00;;;;;;222460;1262;22634;-53
2023/03/28 01:26:38;;;;;;;2.40;2.00;;;23.20;53.00;;;;;;221755;1259;22546;-54
2023/03/28 01:31:48;;;;;;;1.70;1.60;;;23.20;52.80;;;;;;222384;1262;25373;-56
2023/03/28 01:37:40;;;;;;;2.10;1.60;;;23.30;52.80;;;;;;222105;1262;22516;-54
2023/03/28 01:43:18;;;;;;;2.50;1.70;;;23.30;52.70;;;;;;222390;1259;24198;-53
2023/03/28 01:48:41;;;;;;;2.50;1.50;;;23.40;52.70;;;;;;222566;1263;25482;-55
2023/03/28 01:53:56;;;;;;;2.80;1.50;;;23.40;52.60;;;;;;222473;1254;22573;-51
2023/03/28 01:59:18;;;;;;;1.90;1.70;;;23.50;52.80;;;;;;222223;1253;22802;-57
2023/03/28 02:05:00;;;;;;;1.70;1.40;;;23.60;52.80;;;;;;221370;1260;22635;-55
2023/03/28 02:10:07;;;;;;;2.70;2.00;;;23.50;52.30;;;;;;221492;1266;22518;-42
2023/03/28 02:15:42;;;;;;;1.90;1.60;;;23.40;52.90;;;;;;221093;1266;22515;-41
2023/03/28 02:21:12;;;;;;;1.80;1.40;;;23.30;53.00;;;;;;221165;1262;25600;-41
2023/03/28 02:26:25;;;;;;;1.90;1.40;;;23.30;52.80;;;;;;221036;1259;22827;-42
2023/03/28 02:31:53;;;;;;;1.30;1.20;;;23.20;53.20;;;;;;221233;1260;22528;-47
2023/03/28 02:37:15;;;;;;;1.90;1.70;;;23.00;53.00;;;;;;221589;1268;22643;-46
2023/03/28 02:42:44;;;;;;;1.70;1.60;;;22.90;53.80;;;;;;222125;1265;25465;-45
2023/03/28 02:48:40;;;;;;;2.00;1.70;;;22.70;54.00;;;;;;222335;1261;25294;-43
2023/03/28 02:53:51;;;;;;;2.00;1.30;;;22.70;54.40;;;;;;220807;1269;22525;-43
2023/03/28 02:59:02;;;;;;;1.90;1.40;;;22.60;54.10;;;;;;220828;1272;22606;-42
2023/03/28 03:04:06;;;;;;;3.50;2.00;;;22.50;54.80;;;;;;220850;1270;24406;-42
2023/03/28 03:09:12;;;;;;;1.50;1.10;;;22.50;54.40;;;;;;220918;1262;22704;-42
2023/03/28 03:14:18;;;;;;;1.30;1.20;;;22.40;55.00;;;;;;220682;1270;25225;-46
2023/03/28 03:19:22;;;;;;;1.40;1.30;;;22.40;54.60;;;;;;220840;1278;25318;-42
2023/03/28 03:24:27;;;;;;;1.30;1.20;;;22.30;54.80;;;;;;220678;1278;22535;-48
2023/03/28 03:29:35;;;;;;;2.00;1.30;;;22.30;54.90;;;;;;221936;1257;25584;-45
2023/03/28 03:34:42;;;;;;;1.20;1.00;;;22.20;55.10;;;;;;221987;1262;22649;-41
2023/03/28 03:39:49;;;;;;;1.20;0.90;;;22.10;55.00;;;;;;222245;1270;22523;-41
2023/03/28 03:44:54;;;;;;;1.20;1.10;;;22.10;55.00;;;;;;222172;1257;23013;-46
2023/03/28 03:49:59;;;;;;;1.90;1.20;;;22.00;55.10;;;;;;222306;1269;22558;-47
2023/03/28 03:55:05;;;;;;;1.40;1.20;;;21.90;55.20;;;;;;222026;1263;22550;-44
2023/03/28 04:00:13;;;;;;;1.50;1.30;;;21.80;55.60;;;;;;222180;1263;24188;-45
2023/03/28 04:05:24;;;;;;;1.30;1.10;;;21.90;55.40;;;;;;222463;1263;22508;-43
2023/03/28 04:10:37;;;;;;;1.80;1.40;;;22.00;55.30;;;;;;222431;1261;22663;-42
2023/03/28 04:15:41;;;;;;;1.40;1.10;;;22.30;54.50;;;;;;222442;1256;22734;-44
2023/03/28 04:21:11;;;;;;;2.60;0.90;;;22.50;54.20;;;;;;222293;1261;22552;-44
2023/03/28 04:26:25;;;;;;;2.00;1.10;;;22.70;54.00;;;;;;222410;1254;22777;-46
2023/03/28 04:31:37;;;;;;;2.10;1.00;;;22.90;53.20;;;;;;222319;1263;22511;-42
2023/03/28 04:37:01;;;;;;;1.20;1.10;;;23.00;52.60;;;;;;222532;1263;22526;-56
2023/03/28 04:42:08;;;;;;;1.20;1.10;;;23.10;52.50;;;;;;222340;1263;22547;-50
2023/03/28 04:47:50;;;;;;;1.60;1.00;;;23.20;52.20;;;;;;221496;1268;22519;-59
2023/03/28 04:52:56;;;;;;;1.10;0.90;;;23.30;52.10;;;;;;222116;1261;25386;-59
2023/03/28 04:58:01;;;;;;;0.90;0.80;;;23.30;51.80;;;;;;222272;1262;22586;-54
2023/03/28 05:03:12;;;;;;;1.40;0.80;;;23.30;52.10;;;;;;222241;1258;25372;-53
2023/03/28 05:08:26;;;;;;;1.30;1.00;;;23.30;52.30;;;;;;222630;1262;22522;-58
2023/03/28 05:13:32;;;;;;;1.20;0.90;;;23.30;51.50;;;;;;222521;1263;25332;-56
2023/03/28 05:18:48;;;;;;;1.50;1.00;;;23.30;51.10;;;;;;222310;1254;22522;-57
2023/03/28 05:23:56;;;;;;;1.50;0.90;;;23.30;50.90;;;;;;222409;1265;22519;-57
2023/03/28 05:29:00;;;;;;;1.00;0.70;;;23.40;50.50;;;;;;222532;1257;22531;-58
2023/03/28 05:34:05;;;;;;;1.00;0.90;;;23.40;50.50;;;;;;222423;1262;22514;-53
2023/03/28 05:39:15;;;;;;;0.90;0.70;;;23.40;50.50;;;;;;222415;1263;22570;-58
2023/03/28 05:44:20;;;;;;;0.80;0.80;;;23.40;50.80;;;;;;222688;1265;22631;-55
2023/03/28 05:49:43;;;;;;;0.70;0.60;;;23.40;50.50;;;;;;222136;1262;22513;-55
2023/03/28 05:54:47;;;;;;;1.50;0.70;;;23.50;50.30;;;;;;222116;1264;24183;-56
2023/03/28 05:59:54;;;;;;;1.10;0.80;;;23.50;50.20;;;;;;222178;1258;23902;-55
2023/03/28 06:04:59;;;;;;;5.70;0.80;;;23.60;50.40;;;;;;222366;1262;22573;-58
2023/03/28 06:10:07;;;;;;;0.80;0.70;;;23.60;50.00;;;;;;222485;1262;24262;-51
2023/03/28 06:15:11;;;;;;;0.80;0.80;;;23.60;50.50;;;;;;222480;1262;22647;-50
2023/03/28 06:20:18;;;;;;;0.80;0.80;;;23.40;50.80;;;;;;222186;1269;24177;-49
2023/03/28 06:25:22;;;;;;;3.90;0.80;;;23.40;51.00;;;;;;222330;1261;135821;-53
2023/03/28 06:30:27;;;;;;;0.90;0.80;;;23.20;51.90;;;;;;222497;1263;22561;-55
2023/03/28 06:35:33;;;;;;;1.10;0.80;;;23.20;52.70;;;;;;222336;1265;25519;-48
2023/03/28 06:40:37;;;;;;;3.10;0.90;;;23.20;52.30;;;;;;222243;1262;22522;-49
2023/03/28 06:45:41;;;;;;;3.10;0.90;;;23.10;52.50;;;;;;222323;1263;24285;-48
2023/03/28 06:50:49;;;;;;;5.80;0.90;;;23.00;52.50;;;;;;222511;1262;22926;-47
2023/03/28 06:55:57;;;;;;;2.90;1.00;;;22.90;53.00;;;;;;222400;1262;24237;-57
2023/03/28 07:01:02;;;;;;;3.70;0.60;;;22.90;53.20;;;;;;222215;1256;22508;-50
2023/03/28 07:06:09;;;;;;;3.30;1.10;;;22.80;53.50;;;;;;222359;1269;22988;-49
2023/03/28 07:11:13;;;;;;;4.50;1.00;;;22.70;53.20;;;;;;222391;1254;22518;-51
2023/03/28 07:16:19;;;;;;;2.00;0.90;;;22.60;53.80;;;;;;222403;1262;24270;-53
2023/03/28 07:21:24;;;;;;;2.40;1.00;;;22.50;53.80;;;;;;222131;1261;22623;-48
2023/03/28 07:26:30;;;;;;;4.10;0.80;;;22.40;53.70;;;;;;222416;1267;25271;-49
2023/03/28 07:31:34;;;;;;;1.40;0.80;;;22.40;53.80;;;;;;222385;1263;22690;-51
2023/03/28 07:36:38;;;;;;;6.50;0.90;;;22.30;54.10;;;;;;222505;1267;22544;-52
2023/03/28 07:41:47;;;;;;;3.80;1.00;;;22.30;53.60;;;;;;222354;1269;24207;-50
2023/03/28 07:46:51;;;;;;;17.40;1.20;;;22.30;53.50;;;;;;222139;1258;22513;-57
2023/03/28 07:51:56;;;;;;;3.40;0.80;;;22.30;53.80;;;;;;222069;1254;25229;-50
2023/03/28 07:57:00;;;;;;;1.10;0.70;;;22.20;53.70;;;;;;222065;1269;22519;-52
2023/03/28 08:02:36;;;;;;;2.80;0.70;;;22.10;53.90;;;;;;222342;1263;22677;-55
2023/03/28 08:07:44;;;;;;;1.80;0.70;;;22.00;53.60;;;;;;222404;1256;24185;-50
2023/03/28 08:12:49;;;;;;;3.80;0.90;;;22.00;53.80;;;;;;222306;1262;25312;-54
2023/03/28 08:17:53;;;;;;;3.70;0.70;;;22.00;54.00;;;;;;222464;1254;24093;-53
2023/03/28 08:22:58;;;;;;;5.70;1.00;;;21.90;53.80;;;;;;222487;1262;22603;-55
2023/03/28 08:28:25;;;;;;;6.10;1.00;;;21.90;53.60;;;;;;222136;1258;22508;-50
2023/03/28 08:33:31;;;;;;;5.30;0.80;;;21.90;54.00;;;;;;222438;1264;24055;-51
2023/03/28 08:38:35;;;;;;;6.00;1.50;;;21.80;53.80;;;;;;222283;1264;23150;-50
2023/03/28 08:43:49;;;;;;;3.00;1.00;;;21.80;53.80;;;;;;222321;1254;24236;-50
2023/03/28 08:48:54;;;;;;;1.50;0.80;;;21.70;53.60;;;;;;222328;1262;25213;-51
2023/03/28 08:54:07;;;;;;;3.00;0.70;;;21.70;53.70;;;;;;222234;1254;23883;-53
2023/03/28 08:59:15;;;;;;;2.60;0.80;;;21.80;53.20;;;;;;222435;1261;22522;-48
2023/03/28 09:04:23;;;;;;;2.20;1.00;;;22.10;52.90;;;;;;222416;1264;22718;-49
2023/03/28 09:09:37;;;;;;;3.50;1.00;;;22.50;52.10;;;;;;222372;1261;24265;-47
2023/03/28 09:15:49;;;;;;;4.40;0.50;;;22.90;51.30;;;;;;222299;1264;25383;-45
2023/03/28 09:21:20;;;;;;;2.40;0.90;;;23.00;50.90;;;;;;220747;1270;22528;-49
2023/03/28 09:26:40;;;;;;;0.60;0.60;;;23.30;50.70;;;;;;220490;1263;22518;-50
2023/03/28 09:31:49;;;;;;;2.20;0.80;;;23.30;50.70;;;;;;220698;1264;22505;-49
2023/03/28 09:37:00;;;;;;;4.30;0.90;;;23.40;50.60;;;;;;220594;1270;22529;-47
2023/03/28 09:42:16;;;;;;;2.00;0.80;;;23.50;50.50;;;;;;220846;1270;22531;-52
2023/03/28 09:47:46;;;;;;;3.20;0.60;;;23.60;50.50;;;;;;220683;1264;24169;-52
2023/03/28 09:52:53;;;;;;;2.40;0.60;;;23.60;50.30;;;;;;220501;1264;22550;-46
2023/03/28 09:58:11;;;;;;;9.70;0.50;;;23.60;50.30;;;;;;224694;1264;25214;-46
2023/03/28 10:03:34;;;;;;;2.70;0.80;;;23.80;49.90;;;;;;224242;1254;22525;-47
2023/03/28 10:08:41;;;;;;;1.00;0.70;;;23.80;49.70;;;;;;222105;1264;24431;-50
2023/03/28 10:14:34;;;;;;;1.50;0.50;;;23.70;49.80;;;;;;222246;1254;22525;-51
2023/03/28 10:19:42;;;;;;;1.80;0.50;;;23.50;50.10;;;;;;222102;1254;22756;-49
2023/03/28 10:24:53;;;;;;;4.60;0.70;;;23.40;50.20;;;;;;222114;1264;22694;-49
2023/03/28 10:30:29;;;;;;;0.50;0.50;;;23.30;50.40;;;;;;222364;1254;25274;-50
2023/03/28 10:35:34;;;;;;;1.60;0.70;;;23.10;50.80;;;;;;220752;1273;25426;-46
2023/03/28 10:40:57;;;;;;;1.30;0.60;;;23.10;51.30;;;;;;220778;1264;22872;-50
2023/03/28 10:46:33;;;;;;;1.90;0.90;;;23.00;51.60;;;;;;220768;1263;22839;-50
2023/03/28 10:52:47;;;;;;;3.70;0.80;;;23.00;51.80;;;;;;220676;1261;22619;-45
2023/03/28 10:58:22;;;;;;;1.00;0.70;;;22.90;51.90;;;;;;221067;1273;22531;-54
2023/03/28 11:03:54;;;;;;;1.40;0.70;;;22.80;52.00;;;;;;221084;1260;24058;-53
2023/03/28 11:09:14;;;;;;;7.10;0.90;;;22.70;51.90;;;;;;221162;1263;22525;-51
2023/03/28 11:15:16;;;;;;;3.80;0.90;;;22.70;52.30;;;;;;221993;1254;24105;-52
2023/03/28 11:20:34;;;;;;;6.80;1.10;;;22.60;52.00;;;;;;221112;1260;22531;-49
2023/03/28 11:26:08;;;;;;;5.20;1.40;;;22.50;53.30;;;;;;221269;1261;24406;-47
2023/03/28 11:31:37;;;;;;;4.60;1.10;;;22.60;53.60;;;;;;221039;1255;22525;-48
2023/03/28 11:37:03;;;;;;;3.50;1.40;;;22.50;53.40;;;;;;221089;1267;22531;-48
2023/03/28 11:42:26;;;;;;;4.50;0.90;;;22.50;53.30;;;;;;221277;1261;22649;-48
2023/03/28 11:47:40;;;;;;;4.60;1.10;;;22.50;53.30;;;;;;221131;1261;24680;-51
2023/03/28 11:53:14;;;;;;;3.50;0.80;;;22.30;53.40;;;;;;221112;1261;22608;-49
2023/03/28 11:58:34;;;;;;;9.00;0.90;;;22.20;53.70;;;;;;222171;1254;22521;-47
2023/03/28 12:03:57;;;;;;;2.50;0.90;;;22.30;53.60;;;;;;222264;1264;25342;-48
2023/03/28 12:09:11;;;;;;;1.50;0.70;;;22.40;53.20;;;;;;222228;1263;22512;-46
2023/03/28 12:14:40;;;;;;;4.30;1.00;;;22.30;53.30;;;;;;222534;1265;22704;-48
2023/03/28 12:19:55;;;;;;;2.90;0.80;;;22.20;53.60;;;;;;222382;1245;22476;-50
2023/03/28 12:25:18;;;;;;;3.80;1.50;;;22.10;53.90;;;;;;222619;1262;24236;-50
2023/03/28 12:30:28;;;;;;;4.80;1.10;;;22.10;53.80;;;;;;222316;1256;25288;-51
2023/03/28 12:35:55;;;;;;;1.90;1.10;;;22.00;53.90;;;;;;222197;1262;22534;-49
2023/03/28 12:41:05;;;;;;;2.90;0.90;;;22.00;54.20;;;;;;222349;1262;24113;-50
2023/03/28 12:46:13;;;;;;;3.50;1.10;;;22.00;54.00;;;;;;222182;1255;25532;-46
2023/03/28 12:51:34;;;;;;;3.60;0.90;;;21.90;54.10;;;;;;222116;1254;22840;-48
2023/03/28 12:56:39;;;;;;;0.80;0.80;;;21.90;54.30;;;;;;222312;1254;22669;-49
2023/03/28 13:01:49;;;;;;;4.80;1.10;;;21.80;54.30;;;;;;222427;1262;22522;-48
2023/03/28 13:07:23;;;;;;;2.30;0.90;;;21.80;54.60;;;;;;222523;1254;25485;-46
2023/03/28 13:12:39;;;;;;;2.50;0.70;;;21.70;54.10;;;;;;222428;1253;25344;-48
2023/03/28 13:18:07;;;;;;;2.40;0.70;;;21.70;54.00;;;;;;222472;1263;22572;-48
2023/03/28 13:23:15;;;;;;;5.40;0.80;;;21.70;54.30;;;;;;222466;1246;22564;-45
2023/03/28 13:28:36;;;;;;;2.90;1.20;;;21.70;54.00;;;;;;222686;1262;23924;-52
2023/03/28 13:33:58;;;;;;;5.10;1.30;;;21.80;53.40;;;;;;222794;1253;22542;-47
2023/03/28 13:39:19;;;;;;;;;;;21.80;53.00;;;;;;222591;1250;26475;-51
2023/03/28 13:44:26;;;;;;;6.20;4.00;;;21.60;55.10;;;;;;222509;1256;25323;-55
2023/03/28 13:49:36;;;;;;;7.40;4.80;;;21.60;56.30;;;;;;222604;1255;22527;-50
2023/03/28 13:54:40;;;;;;;8.00;5.60;;;21.60;56.60;;;;;;223794;1254;23943;-54
2023/03/28 13:59:51;;;;;;;8.80;5.40;;;21.60;57.20;;;;;;222388;1262;25319;-50
2023/03/28 14:05:23;;;;;;;11.40;6.20;;;21.60;57.50;;;;;;222466;1254;25294;-52
2023/03/28 14:10:38;;;;;;;13.60;6.90;;;21.60;58.20;;;;;;222636;1254;22508;-52
2023/03/28 14:15:43;;;;;;;10.50;5.90;;;21.60;59.60;;;;;;222306;1255;24348;-48
2023/03/28 14:20:47;;;;;;;9.80;5.60;;;21.60;59.80;;;;;;222211;1253;22534;-46
2023/03/28 14:25:52;;;;;;;8.00;5.70;;;21.60;59.80;;;;;;222311;1255;22710;-48
2023/03/28 14:30:57;;;;;;;8.80;4.60;;;21.50;59.00;;;;;;222325;1263;24364;-45
2023/03/28 14:36:04;;;;;;;12.70;4.90;;;21.50;58.40;;;;;;222449;1262;22647;-54
2023/03/28 14:41:21;;;;;;;8.40;4.40;;;21.50;58.30;;;;;;222499;1256;23919;-50
2023/03/28 14:46:28;;;;;;;8.60;3.90;;;21.50;58.10;;;;;;222268;1256;22585;-46
2023/03/28 14:51:47;;;;;;;9.40;3.40;;;21.60;56.80;;;;;;222326;1258;24197;-45
2023/03/28 14:56:51;;;;;;;7.70;3.40;;;21.50;56.50;;;;;;222184;1255;25471;-52
2023/03/28 15:01:58;;;;;;;5.20;3.20;;;21.50;56.20;;;;;;222321;1256;25216;-52
2023/03/28 15:07:02;;;;;;;6.00;3.00;;;21.50;56.00;;;;;;222638;1262;24194;-54
2023/03/28 15:12:07;;;;;;;7.20;2.50;;;21.50;55.40;;;;;;222571;1255;22563;-51
2023/03/28 15:17:18;;;;;;;9.30;3.10;;;21.80;54.10;;;;;;222464;1256;22526;-46
2023/03/28 15:22:26;;;;;;;7.00;2.90;;;22.20;53.10;;;;;;222340;1269;24219;-45
2023/03/28 15:27:32;;;;;;;3.60;2.40;;;22.40;52.30;;;;;;222568;1260;25388;-44
2023/03/28 15:32:36;;;;;;;5.30;2.50;;;22.60;51.50;;;;;;222478;1256;22525;-44
2023/03/28 15:37:43;;;;;;;4.20;2.10;;;22.80;51.00;;;;;;222594;1262;22540;-50
2023/03/28 15:42:50;;;;;;;6.60;2.10;;;22.90;50.50;;;;;;222431;1262;25386;-47
2023/03/28 15:47:55;;;;;;;7.60;2.40;;;23.00;50.00;;;;;;222616;1253;22587;-43
2023/03/28 15:53:05;;;;;;;4.30;1.90;;;23.10;50.20;;;;;;222450;1263;22521;-48
2023/03/28 15:58:13;;;;;;;8.00;2.50;;;23.10;49.10;;;;;;222386;1262;24692;-45
2023/03/28 16:03:25;;;;;;;4.50;1.90;;;23.10;48.90;;;;;;226125;1262;23937;-45
2023/03/28 16:08:31;;;;;;;3.20;2.10;;;23.30;48.30;;;;;;222131;1253;22595;-48
2023/03/28 16:13:35;;;;;;;3.50;2.00;;;23.40;48.80;;;;;;222050;1262;25501;-45
2023/03/28 16:19:01;;;;;;;5.30;1.70;;;23.30;48.20;;;;;;222389;1256;24197;-48
2023/03/28 16:24:05;;;;;;;3.80;1.70;;;23.30;48.30;;;;;;222401;1262;22657;-54
2023/03/28 16:29:10;;;;;;;6.30;1.30;;;23.30;48.10;;;;;;222383;1262;25441;-55
2023/03/28 16:34:14;;;;;;;8.00;2.00;;;23.40;48.00;;;;;;224827;1262;22634;-59
2023/03/28 16:39:18;;;;;;;3.00;1.70;;;23.50;47.90;;;;;;222095;1262;24194;-52
2023/03/28 16:44:22;;;;;;;3.30;1.40;;;23.60;47.50;;;;;;226176;1254;22704;-58
2023/03/28 16:49:28;;;;;;;3.40;1.00;;;23.70;47.50;;;;;;222498;1262;22535;-59
2023/03/28 16:54:32;;;;;;;6.00;1.50;;;23.70;47.50;;;;;;222417;1265;24177;-60
2023/03/28 16:59:36;;;;;;;2.20;1.10;;;23.70;47.10;;;;;;222333;1262;26513;-60
2023/03/28 17:04:40;;;;;;;1.40;1.10;;;23.70;47.10;;;;;;222320;1262;24373;-58
2023/03/28 17:09:45;;;;;;;2.30;1.20;;;23.70;47.60;;;;;;222137;1255;23877;-58
2023/03/28 17:14:50;;;;;;;2.60;1.40;;;23.70;47.00;;;;;;222247;1262;22511;-57
2023/03/28 17:19:55;;;;;;;1.70;1.40;;;23.70;46.80;;;;;;222366;1256;25567;-54
2023/03/28 17:25:00;;;;;;;3.00;1.20;;;23.70;46.80;;;;;;222267;1254;22517;-58
2023/03/28 17:30:08;;;;;;;3.60;1.20;;;23.70;47.00;;;;;;224627;1256;25348;-51
2023/03/28 17:35:13;;;;;;;1.40;1.10;;;23.70;46.80;;;;;;222430;1262;22637;-57
2023/03/28 17:40:18;;;;;;;6.30;1.30;;;23.50;47.50;;;;;;222300;1265;24791;-47
2023/03/28 17:45:25;;;;;;;5.60;1.30;;;23.40;47.70;;;;;;222324;1262;25195;-47
2023/03/28 17:50:30;;;;;;;5.20;1.50;;;23.10;47.70;;;;;;222886;1253;22530;-47
2023/03/28 17:55:37;;;;;;;2.40;1.10;;;23.00;47.70;;;;;;222360;1255;23973;-47
2023/03/28 18:00:43;;;;;;;5.10;1.20;;;22.90;47.10;;;;;;222192;1256;22630;-49
2023/03/28 18:05:59;;;;;;;4.10;1.40;;;22.90;47.80;;;;;;222295;1253;24072;-45
2023/03/28 18:11:10;;;;;;;1.70;1.20;;;22.70;47.70;;;;;;222233;1254;22510;-45
2023/03/28 18:16:17;;;;;;;1.90;1.00;;;22.70;48.30;;;;;;222342;1265;25204;-46
2023/03/28 18:21:25;;;;;;;5.00;1.60;;;22.60;48.10;;;;;;222357;1255;24247;-49
2023/03/28 18:26:31;;;;;;;1.90;1.50;;;22.50;48.40;;;;;;221902;1269;163237;-48
2023/03/28 18:31:39;;;;;;;2.30;1.30;;;22.40;48.60;;;;;;222084;1262;22787;-45
2023/03/28 18:36:54;;;;;;;2.50;1.30;;;22.30;48.60;;;;;;222138;1265;22524;-48
2023/03/28 18:42:03;;;;;;;1.90;1.20;;;22.20;48.60;;;;;;222199;1263;25530;-45
2023/03/28 18:47:55;;;;;;;2.80;1.60;;;22.10;48.80;;;;;;222207;1256;22626;-49
2023/03/28 18:59:55;;;;;;;2.20;1.70;;;21.90;49.00;;;;;;222220;1263;22533;-47
2023/03/28 19:05:01;;;;;;;2.60;2.30;;;21.80;48.40;;;;;;222115;1262;23697;-48
2023/03/28 19:10:12;;;;;;;6.50;2.10;;;21.80;47.90;;;;;;222379;1263;24201;-47
2023/03/28 19:15:19;;;;;;;3.70;2.20;;;21.80;48.20;;;;;;222226;1265;26507;-45
2023/03/28 19:20:25;;;;;;;4.90;2.50;;;22.00;48.40;;;;;;222322;1260;22567;-47
2023/03/28 19:25:33;;;;;;;2.90;2.50;;;22.40;47.30;;;;;;222311;1265;24258;-46
2023/03/28 19:30:40;;;;;;;3.70;2.40;;;22.50;46.50;;;;;;222280;1262;22517;-47
2023/03/28 19:35:46;;;;;;;2.50;2.30;;;22.90;46.00;;;;;;221973;1263;22514;-46
2023/03/28 19:41:00;;;;;;;3.60;2.20;;;23.00;46.20;;;;;;222287;1256;22837;-49
2023/03/28 19:46:10;;;;;;;5.40;2.30;;;23.10;45.90;;;;;;222325;1253;25218;-46
2023/03/28 19:51:18;;;;;;;8.10;2.30;;;23.20;45.70;;;;;;222600;1265;23532;-47
2023/03/28 19:56:23;;;;;;;7.20;3.10;;;23.20;45.60;;;;;;222283;1265;24247;-46
2023/03/28 20:01:30;;;;;;;10.10;2.50;;;23.00;48.60;;;;;;222507;1257;22609;-45
2023/03/28 20:06:36;;;;;;;12.20;2.80;;;22.80;50.30;;;;;;222355;1265;22514;-46
2023/03/28 20:11:43;;;;;;;5.80;2.30;;;22.70;50.90;;;;;;221611;1266;22524;-45
2023/03/28 20:16:49;;;;;;;6.40;2.60;;;22.70;52.40;;;;;;221605;1266;24318;-47
2023/03/28 20:21:56;;;;;;;6.20;2.90;;;22.70;52.00;;;;;;221541;1265;24197;-47
2023/03/28 20:27:03;;;;;;;4.90;2.40;;;22.70;53.40;;;;;;221358;1266;24177;-49
2023/03/28 20:32:09;;;;;;;11.50;2.60;;;22.60;53.10;;;;;;221576;1266;25282;-47
2023/03/28 20:37:16;;;;;;;12.80;2.40;;;22.70;53.70;;;;;;221578;1259;24364;-46
2023/03/28 20:42:23;;;;;;;10.80;2.70;;;22.80;52.70;;;;;;221574;1266;25387;-47
2023/03/28 20:47:27;;;;;;;6.20;2.60;;;22.70;53.20;;;;;;221945;1259;24193;-45
2023/03/28 20:52:36;;;;;;;6.70;2.90;;;22.60;53.20;;;;;;222490;1263;22689;-58
2023/03/28 20:57:41;;;;;;;8.30;2.70;;;22.40;53.70;;;;;;222524;1269;25236;-50
2023/03/28 21:02:52;;;;;;;12.70;2.70;;;22.50;52.90;;;;;;222428;1263;22723;-50
2023/03/28 21:07:57;;;;;;;8.10;2.80;;;22.40;53.00;;;;;;222457;1266;24047;-54
2023/03/28 21:13:02;;;;;;;9.20;3.10;;;22.30;53.20;;;;;;222490;1261;25750;-47
2023/03/28 21:18:06;;;;;;;8.00;3.10;;;22.10;53.50;;;;;;222299;1264;24196;-50
2023/03/28 21:23:12;;;;;;;9.00;2.90;;;22.10;53.30;;;;;;222306;1262;22590;-49
2023/03/28 21:28:15;;;;;;;10.30;2.70;;;22.10;53.60;;;;;;222529;1263;22787;-47
2023/03/28 21:33:20;;;;;;;7.90;3.00;;;22.00;54.10;;;;;;222377;1263;25341;-49
2023/03/28 21:38:26;;;;;;;4.70;2.70;;;21.90;54.00;;;;;;222519;1256;22637;-52
2023/03/28 21:43:30;;;;;;;10.90;4.60;;;22.00;54.90;;;;;;222395;1254;24329;-48
2023/03/28 21:48:35;;;;;;;36.60;16.80;;;22.00;54.20;;;;;;222436;1257;24290;-45
2023/03/28 21:53:41;;;;;;;48.60;20.20;;;22.00;54.10;;;;;;222382;1265;22523;-47
2023/03/28 21:58:45;;;;;;;49.40;21.90;;;22.00;53.80;;;;;;222525;1255;24250;-50
2023/03/28 22:03:49;;;;;;;52.50;21.70;;;22.00;53.80;;;;;;222405;1261;23916;-44
2023/03/28 22:08:53;;;;;;;46.20;20.50;;;22.00;53.90;;;;;;222446;1253;22523;-45
2023/03/28 22:14:00;;;;;;;41.00;18.60;;;21.90;53.80;;;;;;222120;1253;22527;-49
2023/03/28 22:19:12;;;;;;;41.00;19.60;;;21.80;54.50;;;;;;222421;1261;22603;-49
2023/03/28 22:24:16;;;;;;;34.60;17.90;;;21.80;54.40;;;;;;222351;1256;23893;-44
2023/03/28 22:29:20;;;;;;;30.10;15.30;;;21.70;55.30;;;;;;222450;1263;22511;-48
2023/03/28 22:34:25;;;;;;;30.80;14.80;;;21.70;56.70;;;;;;222433;1262;22776;-49
2023/03/28 22:39:29;;;;;;;37.10;15.30;;;21.90;56.50;;;;;;222478;1265;22537;-46
2023/03/28 22:44:33;;;;;;;34.60;15.20;;;22.00;54.90;;;;;;222507;1261;22663;-45
2023/03/28 22:49:38;;;;;;;31.70;15.60;;;22.10;55.10;;;;;;222435;1254;24316;-49
2023/03/28 22:54:43;;;;;;;28.60;14.30;;;22.20;54.50;;;;;;222338;1265;24164;-47
2023/03/28 22:59:51;;;;;;;28.10;13.40;;;22.20;55.20;;;;;;222284;1264;24197;-45
2023/03/28 23:04:55;;;;;;;26.00;13.60;;;22.10;54.40;;;;;;222311;1247;22510;-45
2023/03/28 23:10:01;;;;;;;22.60;12.80;;;22.20;54.80;;;;;;222272;1255;25321;-44
2023/03/28 23:15:06;;;;;;;18.60;12.00;;;22.10;55.50;;;;;;222301;1254;24334;-45
2023/03/28 23:20:13;;;;;;;25.50;12.40;;;22.10;55.00;;;;;;222298;1255;25317;-45
2023/03/28 23:25:18;;;;;;;24.20;12.10;;;22.10;54.60;;;;;;221990;1253;24328;-44
2023/03/28 23:30:22;;;;;;;21.90;12.10;;;22.20;54.20;;;;;;221906;1256;22545;-44
2023/03/28 23:35:29;;;;;;;25.00;12.20;;;22.20;53.50;;;;;;222198;1269;24206;-46
2023/03/28 23:40:33;;;;;;;20.50;11.90;;;22.20;53.40;;;;;;222378;1256;22807;-50
2023/03/28 23:45:38;;;;;;;20.20;11.60;;;22.20;53.20;;;;;;222081;1254;22516;-43
2023/03/28 23:50:42;;;;;;;19.50;10.60;;;22.20;53.20;;;;;;229777;1262;22101;-45
2023/03/28 23:55:45;;;;;;;20.00;10.80;;;22.30;52.90;;;;;;223714;1274;22577;-45
